Eden, Utah
Current Conditions -  °F | °C
As of 12:53 PM on Saturday 25 Oct 2014 (Local Time) from KOGD Reporting Station
Clear Clear  
Wind Chill: 76°   Ceiling: Unl
Heat Index: 76°   Visibility: 10mi
Dew Point: 34°   Wind: 20mph
Humidity: 22%   Direction: 180°S
Pressure: 30.02"   Gusts: 28mph
Location:  41.3°N, 111.81°W
Report Text: KOGD 251853Z 18017G24KT 10SM CLR 24/01 A3002 RMK AO2 PK WND 17027/1801 SLP119 T02440011
Loading
Personal Weather Stations






























Interactive Weather Map
Tropical Storm Tracking
New forecast layout! Learn more

10-Day Weather Forecast

Advertisements
Track Severe Weather on mobile